< < Back
Terminal Aerodrome Forecast


Current Version              Previous Versions:   1  2  3  4  5  6  7  8  9  

Terminal Aerodrome Forecast

647
FTUS42 KILM 302300
TAFFLO
TAF
KFLO 302323Z 3100/3124 09003KT P6SM BKN080
      TEMPO 3108/3112 3SM BR
     FM311500 10008KT P6SM FEW040 SCT080 BKN200=

Latest METAR

680
SAUS70 KWBC 302300 RRB
MTRFLO
METAR KFLO 302253Z 15008KT 10SM FEW110 28/19 A3001 RMK AO2 SLP158
T02780194


USA.gov is the U.S. government's official web portal to all federal, state and local government web resources and services.